sensor_id;sensor_type;location;lat;lon;timestamp;temperature;humidity
418;DHT22;49;48.530;9.200;2023-01-19T00:02:21;3.00;37.70
418;DHT22;49;48.530;9.200;2023-01-19T00:04:48;3.10;37.10
418;DHT22;49;48.530;9.200;2023-01-19T00:07:15;3.20;36.30
418;DHT22;49;48.530;9.200;2023-01-19T00:09:42;3.10;36.30
418;DHT22;49;48.530;9.200;2023-01-19T00:12:11;3.10;36.30
418;DHT22;49;48.530;9.200;2023-01-19T00:14:38;3.10;35.90
418;DHT22;49;48.530;9.200;2023-01-19T00:17:05;3.10;36.60
418;DHT22;49;48.530;9.200;2023-01-19T00:19:32;3.10;36.30
418;DHT22;49;48.530;9.200;2023-01-19T00:21:59;3.10;36.80
418;DHT22;49;48.530;9.200;2023-01-19T00:24:26;3.10;44.20
418;DHT22;49;48.530;9.200;2023-01-19T00:26:52;2.90;39.60
418;DHT22;49;48.530;9.200;2023-01-19T00:29:21;2.70;39.40
418;DHT22;49;48.530;9.200;2023-01-19T00:31:48;2.90;38.50
418;DHT22;49;48.530;9.200;2023-01-19T00:34:15;2.70;38.90
418;DHT22;49;48.530;9.200;2023-01-19T00:36:42;2.60;39.20
418;DHT22;49;48.530;9.200;2023-01-19T00:39:09;2.50;39.50
418;DHT22;49;48.530;9.200;2023-01-19T00:41:36;2.50;39.40
418;DHT22;49;48.530;9.200;2023-01-19T00:44:22;2.70;38.60
418;DHT22;49;48.530;9.200;2023-01-19T00:46:49;2.40;39.30
418;DHT22;49;48.530;9.200;2023-01-19T00:49:16;2.50;39.40
418;DHT22;49;48.530;9.200;2023-01-19T00:51:44;2.60;38.30
418;DHT22;49;48.530;9.200;2023-01-19T00:54:11;2.70;37.80
418;DHT22;49;48.530;9.200;2023-01-19T00:56:38;2.70;37.40
418;DHT22;49;48.530;9.200;2023-01-19T00:59:04;2.60;37.90
418;DHT22;49;48.530;9.200;2023-01-19T01:01:35;2.70;38.20
418;DHT22;49;48.530;9.200;2023-01-19T01:04:02;2.60;37.60
418;DHT22;49;48.530;9.200;2023-01-19T01:06:29;2.70;37.20
418;DHT22;49;48.530;9.200;2023-01-19T01:08:55;2.70;37.00
418;DHT22;49;48.530;9.200;2023-01-19T01:11:22;2.70;37.40
418;DHT22;49;48.530;9.200;2023-01-19T01:13:49;2.60;36.90
418;DHT22;49;48.530;9.200;2023-01-19T01:16:17;2.70;37.20
418;DHT22;49;48.530;9.200;2023-01-19T01:18:45;2.70;37.10
418;DHT22;49;48.530;9.200;2023-01-19T01:21:12;2.70;36.40
418;DHT22;49;48.530;9.200;2023-01-19T01:23:39;2.70;36.60
418;DHT22;49;48.530;9.200;2023-01-19T01:26:05;2.60;36.80
418;DHT22;49;48.530;9.200;2023-01-19T01:28:35;2.60;36.70
418;DHT22;49;48.530;9.200;2023-01-19T01:31:02;2.60;36.40
418;DHT22;49;48.530;9.200;2023-01-19T01:33:29;2.60;36.40
418;DHT22;49;48.530;9.200;2023-01-19T01:35:57;2.50;36.40
418;DHT22;49;48.530;9.200;2023-01-19T01:38:24;2.60;36.20
418;DHT22;49;48.530;9.200;2023-01-19T01:40:51;2.60;36.30
418;DHT22;49;48.530;9.200;2023-01-19T01:43:19;2.50;36.70
418;DHT22;49;48.530;9.200;2023-01-19T01:45:46;2.60;36.40
418;DHT22;49;48.530;9.200;2023-01-19T01:48:15;2.60;36.00
418;DHT22;49;48.530;9.200;2023-01-19T01:50:47;2.60;36.10
418;DHT22;49;48.530;9.200;2023-01-19T01:53:32;2.60;37.80
418;DHT22;49;48.530;9.200;2023-01-19T01:56:03;2.70;41.90
418;DHT22;49;48.530;9.200;2023-01-19T01:58:31;2.40;37.10
418;DHT22;49;48.530;9.200;2023-01-19T02:00:59;2.30;37.20
418;DHT22;49;48.530;9.200;2023-01-19T02:03:44;2.00;38.40
418;DHT22;49;48.530;9.200;2023-01-19T02:06:11;2.00;38.40
418;DHT22;49;48.530;9.200;2023-01-19T02:08:44;1.90;38.60
418;DHT22;49;48.530;9.200;2023-01-19T02:11:31;1.80;43.50
418;DHT22;49;48.530;9.200;2023-01-19T02:14:15;1.70;40.60
418;DHT22;49;48.530;9.200;2023-01-19T02:16:44;1.90;40.40
418;DHT22;49;48.530;9.200;2023-01-19T02:19:13;2.10;38.60
418;DHT22;49;48.530;9.200;2023-01-19T02:21:47;2.40;40.20
418;DHT22;49;48.530;9.200;2023-01-19T02:24:19;2.30;37.60
418;DHT22;49;48.530;9.200;2023-01-19T02:26:47;2.30;37.60
418;DHT22;49;48.530;9.200;2023-01-19T02:29:16;2.30;37.60
418;DHT22;49;48.530;9.200;2023-01-19T02:31:44;2.40;37.40
418;DHT22;49;48.530;9.200;2023-01-19T02:34:14;2.40;36.60
418;DHT22;49;48.530;9.200;2023-01-19T02:36:45;2.50;36.80
418;DHT22;49;48.530;9.200;2023-01-19T02:39:15;2.50;35.90
418;DHT22;49;48.530;9.200;2023-01-19T02:41:48;2.40;35.60
418;DHT22;49;48.530;9.200;2023-01-19T02:44:17;2.30;35.50
418;DHT22;49;48.530;9.200;2023-01-19T02:46:46;2.20;35.70
418;DHT22;49;48.530;9.200;2023-01-19T02:49:13;2.20;35.70
418;DHT22;49;48.530;9.200;2023-01-19T02:51:41;2.30;36.20
418;DHT22;49;48.530;9.200;2023-01-19T02:54:30;2.20;35.40
418;DHT22;49;48.530;9.200;2023-01-19T02:57:26;2.20;35.40
418;DHT22;49;48.530;9.200;2023-01-19T03:00:05;2.20;35.40
418;DHT22;49;48.530;9.200;2023-01-19T03:02:43;2.10;35.60
418;DHT22;49;48.530;9.200;2023-01-19T03:05:30;2.20;35.40
418;DHT22;49;48.530;9.200;2023-01-19T03:08:06;2.10;36.40
418;DHT22;49;48.530;9.200;2023-01-19T03:10:41;2.20;36.10
418;DHT22;49;48.530;9.200;2023-01-19T03:13:15;2.30;36.10
418;DHT22;49;48.530;9.200;2023-01-19T03:15:47;2.30;35.90
418;DHT22;49;48.530;9.200;2023-01-19T03:18:19;2.20;36.50
418;DHT22;49;48.530;9.200;2023-01-19T03:20:49;2.20;35.90
418;DHT22;49;48.530;9.200;2023-01-19T03:23:20;2.40;36.80
418;DHT22;49;48.530;9.200;2023-01-19T03:25:52;2.40;35.90
418;DHT22;49;48.530;9.200;2023-01-19T03:28:28;2.40;36.60
418;DHT22;49;48.530;9.200;2023-01-19T03:30:57;2.30;34.70
418;DHT22;49;48.530;9.200;2023-01-19T03:33:27;2.40;35.60
418;DHT22;49;48.530;9.200;2023-01-19T03:35:59;2.30;35.80
418;DHT22;49;48.530;9.200;2023-01-19T03:38:31;2.10;39.00
418;DHT22;49;48.530;9.200;2023-01-19T03:41:01;2.00;36.80
418;DHT22;49;48.530;9.200;2023-01-19T03:43:32;2.00;36.40
418;DHT22;49;48.530;9.200;2023-01-19T03:46:02;2.10;38.10
418;DHT22;49;48.530;9.200;2023-01-19T03:48:30;2.20;42.30
418;DHT22;49;48.530;9.200;2023-01-19T03:50:57;1.90;37.20
418;DHT22;49;48.530;9.200;2023-01-19T03:53:24;2.10;44.00
418;DHT22;49;48.530;9.200;2023-01-19T03:55:51;2.20;38.20
418;DHT22;49;48.530;9.200;2023-01-19T03:58:18;2.40;36.90
418;DHT22;49;48.530;9.200;2023-01-19T04:00:48;2.30;36.50
418;DHT22;49;48.530;9.200;2023-01-19T04:03:15;2.40;36.70
418;DHT22;49;48.530;9.200;2023-01-19T04:05:43;2.50;37.80
418;DHT22;49;48.530;9.200;2023-01-19T04:08:10;2.60;36.10
418;DHT22;49;48.530;9.200;2023-01-19T04:10:37;2.60;35.10
418;DHT22;49;48.530;9.200;2023-01-19T04:13:05;2.50;34.80
418;DHT22;49;48.530;9.200;2023-01-19T04:15:32;2.60;34.10
418;DHT22;49;48.530;9.200;2023-01-19T04:18:00;2.50;34.10
418;DHT22;49;48.530;9.200;2023-01-19T04:20:27;2.30;34.40
418;DHT22;49;48.530;9.200;2023-01-19T04:22:58;2.20;34.50
418;DHT22;49;48.530;9.200;2023-01-19T04:25:25;2.10;34.70
418;DHT22;49;48.530;9.200;2023-01-19T04:27:53;1.90;35.30
418;DHT22;49;48.530;9.200;2023-01-19T04:30:22;1.90;35.50
418;DHT22;49;48.530;9.200;2023-01-19T04:32:49;2.00;35.00
418;DHT22;49;48.530;9.200;2023-01-19T04:35:18;2.00;36.80
418;DHT22;49;48.530;9.200;2023-01-19T04:37:45;1.90;35.40
418;DHT22;49;48.530;9.200;2023-01-19T04:40:12;1.90;35.30
418;DHT22;49;48.530;9.200;2023-01-19T04:42:42;2.00;36.00
418;DHT22;49;48.530;9.200;2023-01-19T04:45:09;1.90;35.30
418;DHT22;49;48.530;9.200;2023-01-19T04:47:36;1.80;35.60
418;DHT22;49;48.530;9.200;2023-01-19T04:50:05;1.80;36.60
418;DHT22;49;48.530;9.200;2023-01-19T04:52:34;2.00;35.20
418;DHT22;49;48.530;9.200;2023-01-19T04:55:01;2.20;34.80
418;DHT22;49;48.530;9.200;2023-01-19T04:57:29;2.20;34.30
418;DHT22;49;48.530;9.200;2023-01-19T04:59:56;2.20;34.80
418;DHT22;49;48.530;9.200;2023-01-19T05:02:24;2.10;35.50
418;DHT22;49;48.530;9.200;2023-01-19T05:04:51;2.20;35.30
418;DHT22;49;48.530;9.200;2023-01-19T05:07:17;2.30;35.10
418;DHT22;49;48.530;9.200;2023-01-19T05:09:46;2.40;34.70
418;DHT22;49;48.530;9.200;2023-01-19T05:12:13;2.50;35.20
418;DHT22;49;48.530;9.200;2023-01-19T05:14:39;2.40;34.20
418;DHT22;49;48.530;9.200;2023-01-19T05:17:07;1.70;36.50
418;DHT22;49;48.530;9.200;2023-01-19T05:19:34;1.40;39.10
418;DHT22;49;48.530;9.200;2023-01-19T05:22:02;1.40;39.40
418;DHT22;49;48.530;9.200;2023-01-19T05:24:29;1.40;40.10
418;DHT22;49;48.530;9.200;2023-01-19T05:26:58;1.50;40.30
418;DHT22;49;48.530;9.200;2023-01-19T05:29:25;1.10;41.70
418;DHT22;49;48.530;9.200;2023-01-19T05:31:52;1.20;42.80
418;DHT22;49;48.530;9.200;2023-01-19T05:34:19;1.50;42.60
418;DHT22;49;48.530;9.200;2023-01-19T05:36:45;1.50;41.10
418;DHT22;49;48.530;9.200;2023-01-19T05:39:13;1.60;41.00
418;DHT22;49;48.530;9.200;2023-01-19T05:41:40;1.70;40.10
418;DHT22;49;48.530;9.200;2023-01-19T05:44:11;1.80;39.80
418;DHT22;49;48.530;9.200;2023-01-19T05:46:38;1.90;40.20
418;DHT22;49;48.530;9.200;2023-01-19T05:49:05;1.70;40.20
418;DHT22;49;48.530;9.200;2023-01-19T05:51:33;1.50;39.80
418;DHT22;49;48.530;9.200;2023-01-19T05:54:03;1.40;40.30
418;DHT22;49;48.530;9.200;2023-01-19T05:56:30;1.60;39.10
418;DHT22;49;48.530;9.200;2023-01-19T05:58:57;1.80;37.90
418;DHT22;49;48.530;9.200;2023-01-19T06:01:26;1.80;41.60
418;DHT22;49;48.530;9.200;2023-01-19T06:03:53;1.70;38.00
418;DHT22;49;48.530;9.200;2023-01-19T06:06:20;1.60;39.00
418;DHT22;49;48.530;9.200;2023-01-19T06:08:47;1.50;38.40
418;DHT22;49;48.530;9.200;2023-01-19T06:11:14;1.50;38.70
418;DHT22;49;48.530;9.200;2023-01-19T06:13:41;1.50;37.60
418;DHT22;49;48.530;9.200;2023-01-19T06:16:08;1.60;37.20
418;DHT22;49;48.530;9.200;2023-01-19T06:18:37;1.70;36.30
418;DHT22;49;48.530;9.200;2023-01-19T06:21:05;1.70;35.50
418;DHT22;49;48.530;9.200;2023-01-19T06:23:34;1.40;37.10
418;DHT22;49;48.530;9.200;2023-01-19T06:26:01;1.30;37.80
418;DHT22;49;48.530;9.200;2023-01-19T06:28:29;1.30;37.30
418;DHT22;49;48.530;9.200;2023-01-19T06:30:56;1.20;37.20
418;DHT22;49;48.530;9.200;2023-01-19T06:33:25;1.20;38.10
418;DHT22;49;48.530;9.200;2023-01-19T06:35:54;1.10;38.80
418;DHT22;49;48.530;9.200;2023-01-19T06:38:21;1.00;38.50
418;DHT22;49;48.530;9.200;2023-01-19T06:40:53;0.90;38.90
418;DHT22;49;48.530;9.200;2023-01-19T06:43:23;0.60;39.70
418;DHT22;49;48.530;9.200;2023-01-19T06:45:50;0.40;42.10
418;DHT22;49;48.530;9.200;2023-01-19T06:48:18;0.50;43.60
418;DHT22;49;48.530;9.200;2023-01-19T06:50:45;0.90;43.40
418;DHT22;49;48.530;9.200;2023-01-19T06:53:14;0.80;41.30
418;DHT22;49;48.530;9.200;2023-01-19T06:55:42;0.80;41.30
418;DHT22;49;48.530;9.200;2023-01-19T06:58:09;0.90;40.00
418;DHT22;49;48.530;9.200;2023-01-19T07:00:37;1.10;40.00
418;DHT22;49;48.530;9.200;2023-01-19T07:03:05;0.90;38.90
418;DHT22;49;48.530;9.200;2023-01-19T07:05:33;0.90;42.80
418;DHT22;49;48.530;9.200;2023-01-19T07:08:00;1.00;40.00
418;DHT22;49;48.530;9.200;2023-01-19T07:10:29;1.20;39.40
418;DHT22;49;48.530;9.200;2023-01-19T07:12:56;1.10;38.60
418;DHT22;49;48.530;9.200;2023-01-19T07:15:23;1.30;40.60
418;DHT22;49;48.530;9.200;2023-01-19T07:17:50;1.10;38.70
418;DHT22;49;48.530;9.200;2023-01-19T07:20:17;1.10;38.90
418;DHT22;49;48.530;9.200;2023-01-19T07:22:44;1.10;37.40
418;DHT22;49;48.530;9.200;2023-01-19T07:25:11;0.80;38.70
418;DHT22;49;48.530;9.200;2023-01-19T07:27:40;0.70;41.10
418;DHT22;49;48.530;9.200;2023-01-19T07:30:08;0.70;41.70
418;DHT22;49;48.530;9.200;2023-01-19T07:32:35;0.80;42.70
418;DHT22;49;48.530;9.200;2023-01-19T07:35:03;1.10;43.00
418;DHT22;49;48.530;9.200;2023-01-19T07:37:30;1.10;39.10
418;DHT22;49;48.530;9.200;2023-01-19T07:39:57;1.00;39.50
418;DHT22;49;48.530;9.200;2023-01-19T07:42:24;1.20;38.80
418;DHT22;49;48.530;9.200;2023-01-19T07:44:52;1.30;38.20
418;DHT22;49;48.530;9.200;2023-01-19T07:47:19;1.20;37.80
418;DHT22;49;48.530;9.200;2023-01-19T07:49:46;1.40;37.90
418;DHT22;49;48.530;9.200;2023-01-19T07:52:13;1.30;36.70
418;DHT22;49;48.530;9.200;2023-01-19T07:54:40;1.10;38.30
418;DHT22;49;48.530;9.200;2023-01-19T07:57:07;1.10;37.70
418;DHT22;49;48.530;9.200;2023-01-19T07:59:34;1.30;36.90
418;DHT22;49;48.530;9.200;2023-01-19T08:02:02;2.00;44.40
418;DHT22;49;48.530;9.200;2023-01-19T08:04:29;2.00;36.10
418;DHT22;49;48.530;9.200;2023-01-19T08:06:56;2.00;34.40
418;DHT22;49;48.530;9.200;2023-01-19T08:09:24;2.00;33.60
418;DHT22;49;48.530;9.200;2023-01-19T08:11:51;2.00;33.70
418;DHT22;49;48.530;9.200;2023-01-19T08:14:18;2.00;34.30
418;DHT22;49;48.530;9.200;2023-01-19T08:16:45;2.20;34.00
418;DHT22;49;48.530;9.200;2023-01-19T08:19:14;2.40;33.90
418;DHT22;49;48.530;9.200;2023-01-19T08:21:41;2.60;34.80
418;DHT22;49;48.530;9.200;2023-01-19T08:24:17;2.60;34.10
418;DHT22;49;48.530;9.200;2023-01-19T08:26:44;2.90;34.60
418;DHT22;49;48.530;9.200;2023-01-19T08:29:11;3.10;32.10
418;DHT22;49;48.530;9.200;2023-01-19T08:31:37;3.00;31.70
418;DHT22;49;48.530;9.200;2023-01-19T08:34:07;2.90;31.40
418;DHT22;49;48.530;9.200;2023-01-19T08:36:36;3.00;30.50
418;DHT22;49;48.530;9.200;2023-01-19T08:39:03;3.10;30.60
418;DHT22;49;48.530;9.200;2023-01-19T08:41:32;3.10;29.80
418;DHT22;49;48.530;9.200;2023-01-19T08:44:01;3.30;29.50
418;DHT22;49;48.530;9.200;2023-01-19T08:46:28;3.30;29.20
418;DHT22;49;48.530;9.200;2023-01-19T08:48:58;3.00;29.10
418;DHT22;49;48.530;9.200;2023-01-19T08:51:27;3.00;29.90
418;DHT22;49;48.530;9.200;2023-01-19T08:53:56;3.30;29.40
418;DHT22;49;48.530;9.200;2023-01-19T08:56:29;3.20;29.40
418;DHT22;49;48.530;9.200;2023-01-19T08:58:57;3.40;28.90
418;DHT22;49;48.530;9.200;2023-01-19T09:01:26;3.70;29.20
418;DHT22;49;48.530;9.200;2023-01-19T09:03:57;3.60;29.10
418;DHT22;49;48.530;9.200;2023-01-19T09:06:28;3.60;28.80
418;DHT22;49;48.530;9.200;2023-01-19T09:08:59;3.40;28.90
418;DHT22;49;48.530;9.200;2023-01-19T09:11:40;3.50;28.80
418;DHT22;49;48.530;9.200;2023-01-19T09:14:11;3.60;28.50
418;DHT22;49;48.530;9.200;2023-01-19T09:16:38;3.60;29.10
418;DHT22;49;48.530;9.200;2023-01-19T09:19:08;3.70;28.90
418;DHT22;49;48.530;9.200;2023-01-19T09:21:38;3.60;28.90
418;DHT22;49;48.530;9.200;2023-01-19T09:24:11;3.80;29.20
418;DHT22;49;48.530;9.200;2023-01-19T09:26:39;3.90;31.20
418;DHT22;49;48.530;9.200;2023-01-19T09:29:06;3.70;32.80
418;DHT22;49;48.530;9.200;2023-01-19T09:31:37;3.90;30.10
418;DHT22;49;48.530;9.200;2023-01-19T09:34:06;4.20;28.10
418;DHT22;49;48.530;9.200;2023-01-19T09:36:35;4.60;31.80
418;DHT22;49;48.530;9.200;2023-01-19T09:39:06;4.80;28.10
418;DHT22;49;48.530;9.200;2023-01-19T09:41:38;5.00;27.80
418;DHT22;49;48.530;9.200;2023-01-19T09:44:16;5.30;27.20
418;DHT22;49;48.530;9.200;2023-01-19T09:46:44;5.30;26.30
418;DHT22;49;48.530;9.200;2023-01-19T09:49:14;5.70;29.70
418;DHT22;49;48.530;9.200;2023-01-19T09:51:48;5.30;26.40
418;DHT22;49;48.530;9.200;2023-01-19T09:54:17;4.80;27.90
418;DHT22;49;48.530;9.200;2023-01-19T09:56:52;4.80;27.10
418;DHT22;49;48.530;9.200;2023-01-19T09:59:23;4.60;26.50
418;DHT22;49;48.530;9.200;2023-01-19T10:02:15;4.90;27.10
418;DHT22;49;48.530;9.200;2023-01-19T10:04:51;5.60;29.50
418;DHT22;49;48.530;9.200;2023-01-19T10:07:34;5.90;25.70
418;DHT22;49;48.530;9.200;2023-01-19T10:10:18;6.10;24.80
418;DHT22;49;48.530;9.200;2023-01-19T10:13:20;6.20;24.60
418;DHT22;49;48.530;9.200;2023-01-19T10:16:02;6.50;23.70
418;DHT22;49;48.530;9.200;2023-01-19T10:18:40;6.50;23.60
418;DHT22;49;48.530;9.200;2023-01-19T10:21:16;6.70;24.00
418;DHT22;49;48.530;9.200;2023-01-19T10:23:49;6.70;23.10
418;DHT22;49;48.530;9.200;2023-01-19T10:26:22;6.70;23.10
418;DHT22;49;48.530;9.200;2023-01-19T10:28:56;6.90;23.10
418;DHT22;49;48.530;9.200;2023-01-19T10:31:24;7.10;22.70
418;DHT22;49;48.530;9.200;2023-01-19T10:33:53;6.90;21.60
418;DHT22;49;48.530;9.200;2023-01-19T10:36:32;7.00;22.60
418;DHT22;49;48.530;9.200;2023-01-19T10:39:03;7.00;22.90
418;DHT22;49;48.530;9.200;2023-01-19T10:41:38;7.10;21.80
418;DHT22;49;48.530;9.200;2023-01-19T10:44:08;6.70;21.90
418;DHT22;49;48.530;9.200;2023-01-19T10:46:41;6.70;21.90
418;DHT22;49;48.530;9.200;2023-01-19T10:49:23;6.90;24.60
418;DHT22;49;48.530;9.200;2023-01-19T10:51:52;6.90;22.30
418;DHT22;49;48.530;9.200;2023-01-19T10:54:23;6.80;21.60
418;DHT22;49;48.530;9.200;2023-01-19T10:56:54;6.60;24.40
418;DHT22;49;48.530;9.200;2023-01-19T10:59:38;6.50;22.70
418;DHT22;49;48.530;9.200;2023-01-19T11:02:21;6.70;25.30
418;DHT22;49;48.530;9.200;2023-01-19T11:04:56;6.90;23.00
418;DHT22;49;48.530;9.200;2023-01-19T11:07:27;7.20;22.50
418;DHT22;49;48.530;9.200;2023-01-19T11:10:10;7.40;21.90
418;DHT22;49;48.530;9.200;2023-01-19T11:12:44;7.50;22.00
418;DHT22;49;48.530;9.200;2023-01-19T11:15:22;7.50;21.10
418;DHT22;49;48.530;9.200;2023-01-19T11:18:02;7.60;20.70
418;DHT22;49;48.530;9.200;2023-01-19T11:20:38;7.00;21.20
418;DHT22;49;48.530;9.200;2023-01-19T11:23:24;6.80;22.10
418;DHT22;49;48.530;9.200;2023-01-19T11:26:00;6.60;22.10
418;DHT22;49;48.530;9.200;2023-01-19T11:28:35;7.00;21.90
418;DHT22;49;48.530;9.200;2023-01-19T11:31:31;7.20;22.40
418;DHT22;49;48.530;9.200;2023-01-19T11:34:24;7.40;22.00
418;DHT22;49;48.530;9.200;2023-01-19T11:36:57;7.70;25.40
418;DHT22;49;48.530;9.200;2023-01-19T11:39:46;7.60;21.00
418;DHT22;49;48.530;9.200;2023-01-19T11:42:23;7.50;20.80
418;DHT22;49;48.530;9.200;2023-01-19T11:45:05;7.50;21.10
418;DHT22;49;48.530;9.200;2023-01-19T11:47:42;7.20;22.10
418;DHT22;49;48.530;9.200;2023-01-19T11:50:21;7.40;21.90
418;DHT22;49;48.530;9.200;2023-01-19T11:53:11;7.30;21.90
418;DHT22;49;48.530;9.200;2023-01-19T11:55:48;7.60;22.10
418;DHT22;49;48.530;9.200;2023-01-19T11:58:25;7.90;21.00
418;DHT22;49;48.530;9.200;2023-01-19T12:00:59;8.20;21.00
418;DHT22;49;48.530;9.200;2023-01-19T12:03:40;8.00;20.80
418;DHT22;49;48.530;9.200;2023-01-19T12:06:17;8.10;20.10
418;DHT22;49;48.530;9.200;2023-01-19T12:08:50;8.30;20.30
418;DHT22;49;48.530;9.200;2023-01-19T12:11:31;8.20;19.90
418;DHT22;49;48.530;9.200;2023-01-19T12:14:01;8.30;19.80
418;DHT22;49;48.530;9.200;2023-01-19T12:16:32;8.60;20.00
418;DHT22;49;48.530;9.200;2023-01-19T12:19:12;8.40;19.30
418;DHT22;49;48.530;9.200;2023-01-19T12:21:49;8.50;22.10
418;DHT22;49;48.530;9.200;2023-01-19T12:24:38;8.20;20.00
418;DHT22;49;48.530;9.200;2023-01-19T12:27:17;8.00;21.40
418;DHT22;49;48.530;9.200;2023-01-19T12:29:51;8.20;20.60
418;DHT22;49;48.530;9.200;2023-01-19T12:32:32;8.00;22.30
418;DHT22;49;48.530;9.200;2023-01-19T12:35:09;8.30;21.90
418;DHT22;49;48.530;9.200;2023-01-19T12:37:54;8.30;21.00
418;DHT22;49;48.530;9.200;2023-01-19T12:40:25;8.00;21.80
418;DHT22;49;48.530;9.200;2023-01-19T12:43:04;7.60;21.70
418;DHT22;49;48.530;9.200;2023-01-19T12:45:37;7.30;22.40
418;DHT22;49;48.530;9.200;2023-01-19T12:48:23;7.50;22.00
418;DHT22;49;48.530;9.200;2023-01-19T12:50:51;7.50;22.00
418;DHT22;49;48.530;9.200;2023-01-19T12:53:19;7.70;22.20
418;DHT22;49;48.530;9.200;2023-01-19T12:55:57;7.60;21.60
418;DHT22;49;48.530;9.200;2023-01-19T12:58:29;7.30;23.30
418;DHT22;49;48.530;9.200;2023-01-19T13:01:15;7.20;22.90
418;DHT22;49;48.530;9.200;2023-01-19T13:03:59;7.50;22.00
418;DHT22;49;48.530;9.200;2023-01-19T13:09:37;7.80;22.20
418;DHT22;49;48.530;9.200;2023-01-19T13:12:23;7.70;22.20
418;DHT22;49;48.530;9.200;2023-01-19T13:15:26;7.70;22.10
418;DHT22;49;48.530;9.200;2023-01-19T13:17:54;7.80;22.20
418;DHT22;49;48.530;9.200;2023-01-19T13:20:26;7.90;22.80
418;DHT22;49;48.530;9.200;2023-01-19T13:23:19;8.00;23.10
418;DHT22;49;48.530;9.200;2023-01-19T13:25:51;7.80;24.20
418;DHT22;49;48.530;9.200;2023-01-19T13:28:25;7.50;25.10
418;DHT22;49;48.530;9.200;2023-01-19T13:30:56;7.50;23.90
418;DHT22;49;48.530;9.200;2023-01-19T13:33:38;7.60;24.00
418;DHT22;49;48.530;9.200;2023-01-19T13:36:19;7.80;22.90
418;DHT22;49;48.530;9.200;2023-01-19T13:38:47;7.80;27.20
418;DHT22;49;48.530;9.200;2023-01-19T13:41:21;8.30;25.90
418;DHT22;49;48.530;9.200;2023-01-19T13:43:54;8.30;22.70
418;DHT22;49;48.530;9.200;2023-01-19T13:46:23;8.00;24.00
418;DHT22;49;48.530;9.200;2023-01-19T13:48:53;7.90;23.30
418;DHT22;49;48.530;9.200;2023-01-19T13:51:23;7.70;25.40
418;DHT22;49;48.530;9.200;2023-01-19T13:53:53;7.40;24.30
418;DHT22;49;48.530;9.200;2023-01-19T13:56:25;7.10;25.10
418;DHT22;49;48.530;9.200;2023-01-19T13:59:02;7.10;25.90
418;DHT22;49;48.530;9.200;2023-01-19T14:01:38;7.10;25.50
418;DHT22;49;48.530;9.200;2023-01-19T14:04:05;7.20;26.70
418;DHT22;49;48.530;9.200;2023-01-19T14:06:49;7.20;26.30
418;DHT22;49;48.530;9.200;2023-01-19T14:09:20;7.10;27.30
418;DHT22;49;48.530;9.200;2023-01-19T14:12:10;7.20;27.60
418;DHT22;49;48.530;9.200;2023-01-19T14:14:37;7.50;24.50
418;DHT22;49;48.530;9.200;2023-01-19T14:17:19;7.70;27.90
418;DHT22;49;48.530;9.200;2023-01-19T14:19:47;7.70;25.40
418;DHT22;49;48.530;9.200;2023-01-19T14:22:15;7.30;25.30
418;DHT22;49;48.530;9.200;2023-01-19T14:24:43;7.10;26.40
418;DHT22;49;48.530;9.200;2023-01-19T14:27:21;7.10;26.50
418;DHT22;49;48.530;9.200;2023-01-19T14:29:50;7.20;31.80
418;DHT22;49;48.530;9.200;2023-01-19T14:32:26;7.30;26.60
418;DHT22;49;48.530;9.200;2023-01-19T14:35:12;7.20;26.10
418;DHT22;49;48.530;9.200;2023-01-19T14:37:47;7.30;27.60
418;DHT22;49;48.530;9.200;2023-01-19T14:40:18;7.50;28.70
418;DHT22;49;48.530;9.200;2023-01-19T14:42:51;7.60;25.70
418;DHT22;49;48.530;9.200;2023-01-19T14:45:20;7.90;27.80
418;DHT22;49;48.530;9.200;2023-01-19T14:47:53;7.90;26.90
418;DHT22;49;48.530;9.200;2023-01-19T14:50:26;7.80;25.00
418;DHT22;49;48.530;9.200;2023-01-19T14:52:56;7.90;28.00
418;DHT22;49;48.530;9.200;2023-01-19T14:55:31;7.80;24.30
418;DHT22;49;48.530;9.200;2023-01-19T14:58:08;7.70;24.00
418;DHT22;49;48.530;9.200;2023-01-19T15:00:36;7.80;24.10
418;DHT22;49;48.530;9.200;2023-01-19T15:03:03;7.80;24.10
418;DHT22;49;48.530;9.200;2023-01-19T15:05:30;7.80;24.00
418;DHT22;49;48.530;9.200;2023-01-19T15:07:58;7.90;28.20
418;DHT22;49;48.530;9.200;2023-01-19T15:10:27;7.90;24.70
418;DHT22;49;48.530;9.200;2023-01-19T15:12:58;7.70;26.50
418;DHT22;49;48.530;9.200;2023-01-19T15:15:30;7.60;25.80
418;DHT22;49;48.530;9.200;2023-01-19T15:18:02;7.50;24.80
418;DHT22;49;48.530;9.200;2023-01-19T15:20:30;7.50;25.00
418;DHT22;49;48.530;9.200;2023-01-19T15:22:57;7.70;25.70
418;DHT22;49;48.530;9.200;2023-01-19T15:25:27;7.80;24.90
418;DHT22;49;48.530;9.200;2023-01-19T15:27:56;7.80;26.40
418;DHT22;49;48.530;9.200;2023-01-19T15:30:27;7.70;24.70
418;DHT22;49;48.530;9.200;2023-01-19T15:32:55;7.60;25.30
418;DHT22;49;48.530;9.200;2023-01-19T15:35:23;7.70;25.20
418;DHT22;49;48.530;9.200;2023-01-19T15:37:51;7.50;24.80
418;DHT22;49;48.530;9.200;2023-01-19T15:40:19;7.30;25.30
418;DHT22;49;48.530;9.200;2023-01-19T15:42:48;7.40;25.70
418;DHT22;49;48.530;9.200;2023-01-19T15:45:42;7.20;27.20
418;DHT22;49;48.530;9.200;2023-01-19T15:48:10;7.20;28.40
418;DHT22;49;48.530;9.200;2023-01-19T15:50:42;7.40;32.30
418;DHT22;49;48.530;9.200;2023-01-19T15:53:12;7.80;28.90
418;DHT22;49;48.530;9.200;2023-01-19T15:55:40;7.50;25.80
418;DHT22;49;48.530;9.200;2023-01-19T15:58:10;7.30;26.50
418;DHT22;49;48.530;9.200;2023-01-19T16:00:42;7.00;26.50
418;DHT22;49;48.530;9.200;2023-01-19T16:03:09;7.20;26.40
418;DHT22;49;48.530;9.200;2023-01-19T16:05:37;7.20;26.60
418;DHT22;49;48.530;9.200;2023-01-19T16:08:07;7.00;26.60
418;DHT22;49;48.530;9.200;2023-01-19T16:10:34;6.90;27.00
418;DHT22;49;48.530;9.200;2023-01-19T16:13:04;7.00;27.50
418;DHT22;49;48.530;9.200;2023-01-19T16:15:33;6.90;27.30
418;DHT22;49;48.530;9.200;2023-01-19T16:18:04;7.00;27.10
418;DHT22;49;48.530;9.200;2023-01-19T16:20:31;7.00;27.00
418;DHT22;49;48.530;9.200;2023-01-19T16:22:58;6.90;27.00
418;DHT22;49;48.530;9.200;2023-01-19T16:25:25;6.90;27.10
418;DHT22;49;48.530;9.200;2023-01-19T16:27:53;6.90;27.00
418;DHT22;49;48.530;9.200;2023-01-19T16:30:26;6.90;27.10
418;DHT22;49;48.530;9.200;2023-01-19T16:32:55;6.80;27.10
418;DHT22;49;48.530;9.200;2023-01-19T16:35:24;6.80;27.70
418;DHT22;49;48.530;9.200;2023-01-19T16:37:55;6.80;27.90
418;DHT22;49;48.530;9.200;2023-01-19T16:40:24;7.00;27.60
418;DHT22;49;48.530;9.200;2023-01-19T16:43:13;6.80;27.40
418;DHT22;49;48.530;9.200;2023-01-19T16:45:58;6.90;27.50
418;DHT22;49;48.530;9.200;2023-01-19T16:48:29;6.90;27.70
418;DHT22;49;48.530;9.200;2023-01-19T16:51:03;6.50;28.10
418;DHT22;49;48.530;9.200;2023-01-19T16:53:33;6.50;28.50
418;DHT22;49;48.530;9.200;2023-01-19T16:56:13;6.60;28.20
418;DHT22;49;48.530;9.200;2023-01-19T16:58:43;6.70;27.80
418;DHT22;49;48.530;9.200;2023-01-19T17:01:15;6.70;28.20
418;DHT22;49;48.530;9.200;2023-01-19T17:03:45;6.70;28.50
418;DHT22;49;48.530;9.200;2023-01-19T17:06:16;6.60;28.30
418;DHT22;49;48.530;9.200;2023-01-19T17:08:47;6.60;34.40
418;DHT22;49;48.530;9.200;2023-01-19T17:11:21;6.50;28.90
418;DHT22;49;48.530;9.200;2023-01-19T17:13:52;6.40;29.40
418;DHT22;49;48.530;9.200;2023-01-19T17:16:23;6.30;29.70
418;DHT22;49;48.530;9.200;2023-01-19T17:18:55;6.30;29.40
418;DHT22;49;48.530;9.200;2023-01-19T17:21:27;6.30;30.10
418;DHT22;49;48.530;9.200;2023-01-19T17:24:06;6.30;31.10
418;DHT22;49;48.530;9.200;2023-01-19T17:26:36;5.90;30.70
418;DHT22;49;48.530;9.200;2023-01-19T17:29:10;6.00;30.20
418;DHT22;49;48.530;9.200;2023-01-19T17:31:37;6.10;30.00
418;DHT22;49;48.530;9.200;2023-01-19T17:34:06;6.30;29.60
418;DHT22;49;48.530;9.200;2023-01-19T17:36:36;6.40;29.50
418;DHT22;49;48.530;9.200;2023-01-19T17:39:07;6.40;29.30
418;DHT22;49;48.530;9.200;2023-01-19T17:41:36;6.20;29.30